createdAt,value
2018-09-12T00:05:59.973Z,17.30
2018-09-12T00:08:28.490Z,17.30
2018-09-12T00:10:58.734Z,17.30
2018-09-12T00:13:27.209Z,17.30
2018-09-12T00:15:56.402Z,17.30
2018-09-12T00:18:24.928Z,17.30
2018-09-12T00:20:54.251Z,17.20
2018-09-12T00:23:23.319Z,17.20
2018-09-12T00:43:25.387Z,16.90
2018-09-12T00:45:54.741Z,16.90
2018-09-12T00:48:23.267Z,16.90
2018-09-12T00:50:52.382Z,16.90
2018-09-12T00:53:20.862Z,16.90
2018-09-12T00:55:50.006Z,16.80
2018-09-12T00:58:18.726Z,16.80
2018-09-12T01:00:47.336Z,16.80
2018-09-12T01:20:35.960Z,16.50
2018-09-12T01:23:04.499Z,16.50
2018-09-12T01:25:33.173Z,16.60
2018-09-12T01:28:01.826Z,16.50
2018-09-12T01:30:30.398Z,16.50
2018-09-12T01:32:58.964Z,16.50
2018-09-12T01:35:27.475Z,16.50
2018-09-12T01:37:55.996Z,16.50
2018-09-12T01:40:24.461Z,16.40
2018-09-12T01:42:53.237Z,16.40
2018-09-12T01:45:21.671Z,16.40
2018-09-12T01:47:52.150Z,16.40
2018-09-12T02:07:43.346Z,16.30
2018-09-12T02:10:12.999Z,16.20
2018-09-12T02:12:41.434Z,16.20
2018-09-12T02:15:09.964Z,16.20
2018-09-12T02:35:00.035Z,16.00
2018-09-12T02:37:28.606Z,16.00
2018-09-12T02:39:57.090Z,16.00
2018-09-12T02:42:26.214Z,15.90
2018-09-12T02:44:55.301Z,15.80
2018-09-12T02:47:29.063Z,15.80
2018-09-12T02:49:57.627Z,15.80
2018-09-12T02:52:26.882Z,15.80
2018-09-12T02:54:55.364Z,15.80
2018-09-12T02:57:24.078Z,15.80
2018-09-12T03:00:05.005Z,15.70
2018-09-12T03:20:12.398Z,15.60
2018-09-12T03:22:40.899Z,15.60
2018-09-12T03:25:09.412Z,15.60
2018-09-12T03:27:39.159Z,15.50
2018-09-12T03:30:08.482Z,15.50
2018-09-12T03:32:37.130Z,15.50
2018-09-12T03:35:07.007Z,15.40
2018-09-12T03:37:35.760Z,15.40
2018-09-12T03:40:05.265Z,15.40
2018-09-12T03:42:35.076Z,15.40
2018-09-12T04:02:25.070Z,15.30
2018-09-12T04:22:14.856Z,15.20
2018-09-12T04:24:43.950Z,15.20
2018-09-12T04:27:12.400Z,15.20
2018-09-12T04:29:41.036Z,15.10
2018-09-12T04:32:09.577Z,15.10
2018-09-12T04:34:39.515Z,15.00
2018-09-12T04:37:08.203Z,15.00
2018-09-12T04:39:37.698Z,15.00
2018-09-12T04:42:06.233Z,15.00
2018-09-12T04:44:35.777Z,15.00
2018-09-12T04:47:06.012Z,15.00
2018-09-12T04:49:35.130Z,15.00
2018-09-12T04:52:04.274Z,15.10
2018-09-12T04:54:32.793Z,15.10
2018-09-12T04:57:01.335Z,15.10
2018-09-12T04:59:31.406Z,15.00
2018-09-12T05:01:59.804Z,15.00
2018-09-12T05:04:28.351Z,15.00
2018-09-12T05:06:57.798Z,15.00
2018-09-12T05:26:47.903Z,15.00
2018-09-12T05:29:16.723Z,15.00
2018-09-12T05:31:45.161Z,15.00
2018-09-12T05:34:13.666Z,14.90
2018-09-12T05:36:42.230Z,14.90
2018-09-12T05:39:11.617Z,15.00
2018-09-12T05:59:01.821Z,15.20
2018-09-12T06:01:30.960Z,15.30
2018-09-12T06:03:59.457Z,15.30
2018-09-12T06:06:28.100Z,15.30
2018-09-12T06:08:56.754Z,15.40
2018-09-12T06:11:25.251Z,15.40
2018-09-12T06:13:54.278Z,15.40
2018-09-12T06:16:22.711Z,15.50
2018-09-12T06:18:51.290Z,15.50
2018-09-12T06:21:19.933Z,15.50
2018-09-12T06:23:48.957Z,15.50
2018-09-12T06:26:17.405Z,15.60
2018-09-12T06:46:08.335Z,16.00
2018-09-12T07:05:58.890Z,16.50
2018-09-12T07:08:28.447Z,16.60
2018-09-12T07:10:57.001Z,16.60
2018-09-12T07:13:25.541Z,16.70
2018-09-12T07:15:54.144Z,16.80
2018-09-12T07:18:22.673Z,16.80
2018-09-12T07:20:51.870Z,16.90
2018-09-12T07:23:20.682Z,17.00
2018-09-12T07:25:49.117Z,17.00
2018-09-12T07:28:17.570Z,17.00
2018-09-12T07:30:46.123Z,17.10
2018-09-12T07:33:14.630Z,17.20
2018-09-12T07:35:43.092Z,17.20
2018-09-12T07:38:11.621Z,17.30
2018-09-12T07:40:40.265Z,17.30
2018-09-12T07:43:08.847Z,17.30
2018-09-12T07:45:37.739Z,17.40
2018-09-12T07:48:06.612Z,17.40
2018-09-12T08:07:56.534Z,17.80
2018-09-12T08:10:26.910Z,17.90
2018-09-12T08:12:55.977Z,17.90
2018-09-12T08:15:25.573Z,18.00
2018-09-12T08:17:54.904Z,18.00
2018-09-12T08:20:23.324Z,18.10
2018-09-12T08:40:14.983Z,18.70
2018-09-12T08:42:43.964Z,18.80
2018-09-12T08:45:12.483Z,18.80
2018-09-12T08:47:41.077Z,18.90
2018-09-12T08:50:10.129Z,18.90
2018-09-12T08:52:39.027Z,19.00
2018-09-12T08:55:08.419Z,19.10
2018-09-12T09:14:58.189Z,19.80
2018-09-12T09:34:48.807Z,20.30
2018-09-12T09:37:17.245Z,20.30
2018-09-12T09:57:08.034Z,21.00
2018-09-12T09:59:36.990Z,21.20
2018-09-12T10:02:11.625Z,21.30
2018-09-12T10:04:45.434Z,21.50
2018-09-12T10:24:35.103Z,22.50
2018-09-12T10:27:03.546Z,22.60
2018-09-12T10:46:53.081Z,23.30
2018-09-12T10:49:21.574Z,23.40
2018-09-12T10:51:50.585Z,23.50
2018-09-12T10:54:20.063Z,23.50
2018-09-12T11:14:10.442Z,23.90
2018-09-12T11:16:39.012Z,24.00
2018-09-12T11:19:07.636Z,24.10
2018-09-12T11:21:37.043Z,24.10
2018-09-12T11:24:05.742Z,24.10
2018-09-12T11:26:34.171Z,24.30
2018-09-12T11:29:02.755Z,24.20
2018-09-12T11:31:31.353Z,24.40
2018-09-12T11:33:59.808Z,24.40
2018-09-12T11:36:28.356Z,24.50
2018-09-12T11:56:17.886Z,24.60
2018-09-12T11:58:46.374Z,24.60
2018-09-12T12:01:14.946Z,24.60
2018-09-12T12:03:44.658Z,24.60
2018-09-12T12:06:13.143Z,24.70
2018-09-12T12:08:41.792Z,24.90
2018-09-12T12:11:10.329Z,24.90
2018-09-12T12:13:38.936Z,24.90
2018-09-12T12:16:07.396Z,24.90
2018-09-12T12:18:35.926Z,24.90
2018-09-12T12:38:25.585Z,25.20
2018-09-12T12:40:54.085Z,25.30
2018-09-12T12:43:22.617Z,25.40
2018-09-12T12:45:51.087Z,25.50
2018-09-12T12:48:19.631Z,25.70
2018-09-12T13:08:10.170Z,25.80
2018-09-12T13:10:38.723Z,25.70
2018-09-12T13:13:07.278Z,25.70
2018-09-12T13:15:35.753Z,25.70
2018-09-12T13:18:05.074Z,25.70
2018-09-12T13:20:34.146Z,25.70
2018-09-12T13:23:02.691Z,25.70
2018-09-12T13:25:31.170Z,25.70
2018-09-12T13:28:00.671Z,25.70
2018-09-12T13:30:29.138Z,25.80
2018-09-12T13:32:57.725Z,26.00
2018-09-12T13:35:26.212Z,25.90
2018-09-12T13:55:15.579Z,27.40
2018-09-12T13:57:45.324Z,28.20
2018-09-12T14:00:13.951Z,28.70
2018-09-12T14:02:43.050Z,29.20
2018-09-12T14:05:11.412Z,29.60
2018-09-12T14:07:40.589Z,30.20
2018-09-12T14:10:09.709Z,30.80
2018-09-12T14:30:01.272Z,33.60
2018-09-12T14:32:30.456Z,33.90
2018-09-12T14:52:20.477Z,35.00
2018-09-12T14:54:49.018Z,35.40
2018-09-12T15:14:44.729Z,34.80
2018-09-12T15:34:34.581Z,35.50
2018-09-12T15:37:03.178Z,35.40
2018-09-12T15:39:31.554Z,35.30
2018-09-12T15:42:00.105Z,35.30
2018-09-12T15:44:28.525Z,35.10
2018-09-12T15:46:56.986Z,34.80
2018-09-12T16:06:48.330Z,30.80
2018-09-12T16:09:16.986Z,30.60
2018-09-12T16:29:07.793Z,28.50
2018-09-12T16:48:57.830Z,26.60
2018-09-12T16:51:26.357Z,26.50
2018-09-12T16:53:54.877Z,26.30
2018-09-12T17:13:48.245Z,25.10
2018-09-12T17:16:16.833Z,25.00
2018-09-12T17:18:45.309Z,24.90
2018-09-12T17:21:13.832Z,24.70
2018-09-12T17:23:43.044Z,24.50
2018-09-12T17:26:11.524Z,24.50
2018-09-12T17:28:40.218Z,24.30
2018-09-12T17:31:08.710Z,24.30
2018-09-12T17:33:38.169Z,24.20
2018-09-12T17:36:06.882Z,24.10
2018-09-12T17:38:35.522Z,24.10
2018-09-12T17:41:04.146Z,24.00
2018-09-12T17:43:32.763Z,24.00
2018-09-12T17:46:01.160Z,23.90
2018-09-12T17:48:29.809Z,23.80
2018-09-12T17:50:59.011Z,23.80
2018-09-12T17:53:27.481Z,23.70
2018-09-12T17:55:56.011Z,23.60
2018-09-12T17:58:24.616Z,23.50
2018-09-12T18:00:53.456Z,23.50
2018-09-12T18:03:22.038Z,23.40
2018-09-12T18:05:50.680Z,23.30
2018-09-12T18:08:19.217Z,23.30
2018-09-12T18:10:47.817Z,23.30
2018-09-12T18:13:16.485Z,23.30
2018-09-12T18:33:06.633Z,23.10
2018-09-12T18:35:35.793Z,23.10
2018-09-12T18:38:05.176Z,22.90
2018-09-12T18:57:54.741Z,22.50
2018-09-12T19:17:44.996Z,22.10
2018-09-12T19:20:13.483Z,22.00
2018-09-12T19:22:41.945Z,22.00
2018-09-12T19:25:11.966Z,21.90
2018-09-12T19:27:40.425Z,21.90
2018-09-12T19:30:09.013Z,21.90
2018-09-12T19:49:59.218Z,21.50
2018-09-12T19:52:28.330Z,21.50
2018-09-12T19:54:56.951Z,21.50
2018-09-12T19:57:25.732Z,21.50
2018-09-12T19:59:55.326Z,21.50
2018-09-12T20:02:27.160Z,21.50
2018-09-12T20:04:56.093Z,21.50
2018-09-12T20:07:25.283Z,21.50
2018-09-12T20:09:53.781Z,21.50
2018-09-12T20:12:23.633Z,21.40
2018-09-12T20:14:52.806Z,21.40
2018-09-12T20:17:21.324Z,21.40
2018-09-12T20:19:50.117Z,21.30
2018-09-12T20:22:18.605Z,21.30
2018-09-12T20:42:08.301Z,21.00
2018-09-12T20:44:36.849Z,21.10
2018-09-12T20:47:06.827Z,21.10
2018-09-12T21:06:58.410Z,21.00
2018-09-12T21:09:26.903Z,21.00
2018-09-12T21:11:55.410Z,21.00
2018-09-12T21:14:23.900Z,21.00
2018-09-12T21:16:53.002Z,21.00
2018-09-12T21:19:21.459Z,21.00
2018-09-12T21:21:49.901Z,20.90
2018-09-12T21:24:19.010Z,21.00
2018-09-12T21:26:47.495Z,20.90
2018-09-12T21:46:37.610Z,20.80
2018-09-12T21:49:06.102Z,20.80
2018-09-12T21:51:34.556Z,20.70
2018-09-12T22:11:24.114Z,20.30
2018-09-12T22:13:52.607Z,20.30
2018-09-12T22:16:22.101Z,20.20
2018-09-12T22:18:51.388Z,20.10
2018-09-12T22:21:19.885Z,20.10
2018-09-12T22:23:48.311Z,20.10
2018-09-12T22:26:16.733Z,20.20
2018-09-12T22:28:45.260Z,20.10
2018-09-12T22:31:13.714Z,20.20
2018-09-12T22:33:42.990Z,20.10
2018-09-12T22:36:12.358Z,20.10
2018-09-12T22:38:40.987Z,19.90
2018-09-12T22:41:09.664Z,19.90
2018-09-12T22:43:38.202Z,19.90
2018-09-12T22:46:06.770Z,19.90
2018-09-12T22:48:35.954Z,19.90
2018-09-12T22:51:05.133Z,20.00
2018-09-12T22:53:33.583Z,20.00
2018-09-12T22:56:02.069Z,20.10
2018-09-12T22:58:31.008Z,20.20
2018-09-12T23:00:59.636Z,20.30
2018-09-12T23:03:28.882Z,20.40
2018-09-12T23:05:57.280Z,20.50
2018-09-12T23:08:26.489Z,20.40
2018-09-12T23:10:54.987Z,20.40
2018-09-12T23:13:24.045Z,20.30
2018-09-12T23:15:52.539Z,20.30
2018-09-12T23:18:21.306Z,20.20
2018-09-12T23:20:49.735Z,20.10
2018-09-12T23:23:18.919Z,20.00
2018-09-12T23:25:48.027Z,19.90
2018-09-12T23:28:16.537Z,19.70
2018-09-12T23:30:44.981Z,19.70
2018-09-12T23:33:13.522Z,19.70
2018-09-12T23:35:41.925Z,19.60
2018-09-12T23:38:10.369Z,19.50
2018-09-12T23:40:38.906Z,19.50
2018-09-12T23:43:08.617Z,19.40
2018-09-12T23:45:37.329Z,19.30
2018-09-12T23:48:05.701Z,19.30
2018-09-12T23:50:34.287Z,19.30
2018-09-12T23:53:02.781Z,19.10
2018-09-12T23:55:31.231Z,19.10
2018-09-12T23:57:59.753Z,19.10
